bureau de piste

METAR LFMD 270800Z AUTO VRB02KT CAVOK 28/15 Q1010 NOSIG

TAF LFMD 270800Z 2709/2809 VRB03KT CAVOK BECMG 2709/2711 13008KT BECMG 2717/2719 VRB03KT PROB30 TEMPO 2805/2808 BKN013 BECMG 2808/2809 13006KT

INFORMATION ADDS - 0832 UTC 27 July 2017

Plus d’information sur les terrains : LFMD et VALBERG

Les commentaires sont clos.